Time;durP1;ratioP1;P1;durP2;ratioP2;P2;SDS_P1;SDS_P2;PMS_P1;PMS_P2;Temp;Humidity;BMP_temperature;BMP_pressure;BME280_temperature;BME280_humidity;BME280_pressure;Samples;Min_cycle;Max_cycle;Signal;HPM_P1;HPM_P2
2022/12/25 00:00:09;;;;;;;;;13.50;11.50;;;;;12.06;83.00;100775.09;5036968;28;45255;-52
2022/12/25 00:02:34;;;;;;;;;17.00;14.60;;;;;12.11;83.10;100781.84;5036166;28;45798;-50
2022/12/25 00:05:00;;;;;;;;;19.50;14.25;;;;;11.99;82.74;100755.00;5035375;28;45377;-52
2022/12/25 00:07:25;;;;;;;;;15.75;14.25;;;;;11.93;82.48;100737.50;5036340;28;45339;-52
2022/12/25 00:09:51;;;;;;;;;11.75;10.75;;;;;12.14;82.72;100773.16;5037064;28;45305;-54
2022/12/25 00:12:18;;;;;;;;;14.75;12.25;;;;;12.12;82.58;100773.38;5036042;28;45870;-54
2022/12/25 00:14:43;;;;;;;;;13.60;13.20;;;;;11.94;82.85;100752.06;5035075;28;45464;-53
2022/12/25 00:17:09;;;;;;;;;18.00;14.75;;;;;12.09;82.90;100772.97;5035264;28;45474;-53
2022/12/25 00:19:34;;;;;;;;;14.00;14.00;;;;;12.11;82.80;100768.94;5036487;28;45684;-54
2022/12/25 00:22:00;;;;;;;;;12.25;11.00;;;;;12.17;82.64;100781.81;5035074;28;45432;-53
2022/12/25 00:24:25;;;;;;;;;12.25;12.25;;;;;12.20;82.59;100778.63;5036372;28;45289;-50
2022/12/25 00:26:51;;;;;;;;;16.00;13.25;;;;;12.22;82.10;100767.38;5036590;28;45388;-49
2022/12/25 00:29:16;;;;;;;;;16.25;10.50;;;;;12.22;82.08;100759.13;5036334;28;45372;-50
2022/12/25 00:31:42;;;;;;;;;16.50;14.25;;;;;12.17;82.20;100751.53;5034505;28;46737;-53
2022/12/25 00:34:07;;;;;;;;;13.75;12.50;;;;;12.22;82.23;100761.03;5035495;28;45321;-55
2022/12/25 00:36:33;;;;;;;;;14.25;12.25;;;;;12.24;82.00;100764.41;5035721;28;45218;-56
2022/12/25 00:38:58;;;;;;;;;13.00;12.50;;;;;12.20;81.90;100767.63;5036648;28;45197;-55
2022/12/25 00:44:08;;;;;;;;;15.40;13.40;;;;;12.23;82.09;100777.34;5035834;28;45420;-54
2022/12/25 00:46:35;;;;;;;;;12.40;11.40;;;;;12.23;81.94;100768.22;5012900;28;45360;-54
2022/12/25 00:49:00;;;;;;;;;12.00;12.00;;;;;12.06;81.83;100732.97;5034113;28;45923;-54
2022/12/25 00:51:26;;;;;;;;;16.25;13.00;;;;;12.13;81.80;100731.06;5034442;28;45487;-55
2022/12/25 00:53:51;;;;;;;;;16.00;14.75;;;;;12.28;81.82;100744.47;5015914;28;45370;-49
2022/12/25 00:56:17;;;;;;;;;12.00;11.75;;;;;12.17;82.03;100731.44;5015934;28;45494;-50
2022/12/25 00:58:42;;;;;;;;;16.00;13.25;;;;;12.29;81.89;100751.69;5016055;28;45368;-54
2022/12/25 01:01:09;;;;;;;;;17.00;14.00;;;;;12.28;81.91;100738.13;5015971;28;46000;-55
2022/12/25 01:03:34;;;;;;;;;19.20;15.20;;;;;12.25;82.21;100742.19;5014331;28;45647;-53
2022/12/25 01:06:02;;;;;;;;;17.25;14.25;;;;;12.19;81.93;100729.31;5016018;28;45359;-55
2022/12/25 01:08:28;;;;;;;;;18.20;13.00;;;;;12.25;82.11;100742.19;4997949;28;45354;-53
2022/12/25 01:10:58;;;;;;;;;15.60;13.40;;;;;12.23;82.24;100748.97;5015587;28;45694;-50
2022/12/25 01:13:24;;;;;;;;;17.20;13.00;;;;;12.22;82.06;100739.03;5014383;28;45729;-52
2022/12/25 01:15:51;;;;;;;;;15.50;14.00;;;;;11.55;82.55;100633.03;5015583;28;45368;-51
2022/12/25 01:18:19;;;;;;;;;13.00;13.00;;;;;12.20;82.26;100736.50;5015926;28;45452;-53
2022/12/25 01:20:45;;;;;;;;;17.80;17.00;;;;;12.24;82.36;100731.38;5014086;28;45960;-54
2022/12/25 01:23:10;;;;;;;;;25.50;18.25;;;;;12.26;81.87;100745.75;5015889;28;45358;-53
2022/12/25 01:25:36;;;;;;;;;15.25;15.00;;;;;12.16;82.26;100727.00;5015658;28;45373;-51
2022/12/25 01:28:01;;;;;;;;;16.75;14.25;;;;;12.23;82.37;100741.56;5015574;28;45342;-50
2022/12/25 01:30:27;;;;;;;;;16.25;15.50;;;;;12.24;82.26;100748.75;5015655;28;45411;-53
2022/12/25 01:32:52;;;;;;;;;14.50;13.75;;;;;12.03;82.71;100720.53;5015001;28;45365;-50
2022/12/25 01:35:18;;;;;;;;;16.75;15.25;;;;;12.25;82.52;100755.94;5015654;28;45373;-50
2022/12/25 01:37:43;;;;;;;;;18.75;15.75;;;;;12.28;82.46;100754.66;5015432;28;45418;-54
2022/12/25 01:40:09;;;;;;;;;16.75;16.75;;;;;12.30;82.37;100763.50;5015200;28;45375;-54
2022/12/25 01:42:35;;;;;;;;;14.00;13.00;;;;;12.11;82.43;100726.84;5015059;28;45546;-52
2022/12/25 01:45:18;;;;;;;;;18.00;16.50;;;;;12.32;82.30;100762.22;5014794;28;45293;-55
2022/12/25 01:47:43;;;;;;;;;15.20;13.40;;;;;12.32;82.10;100767.72;5014939;28;45606;-55
2022/12/25 01:50:09;;;;;;;;;18.00;14.00;;;;;12.13;81.94;100725.56;5014955;28;45720;-54
2022/12/25 01:52:34;;;;;;;;;18.50;14.75;;;;;12.28;82.02;100747.22;5023701;28;45442;-53
2022/12/25 01:55:02;;;;;;;;;16.75;12.00;;;;;12.30;81.99;100736.00;5034776;28;45381;-53
2022/12/25 01:57:30;;;;;;;;;16.20;13.60;;;;;12.21;81.95;100727.16;5033729;28;45517;-49
2022/12/25 01:59:56;;;;;;;;;15.40;12.40;;;;;12.37;82.14;100752.47;5034969;28;45440;-54
2022/12/25 02:02:21;;;;;;;;;12.50;12.50;;;;;12.38;82.21;100746.72;5038527;28;45297;-55
2022/12/25 02:04:51;;;;;;;;;14.75;13.25;;;;;12.35;81.87;100736.19;5038120;28;45361;-53
2022/12/25 02:07:20;;;;;;;;;12.60;11.40;;;;;12.36;81.97;100726.84;5036875;28;45551;-53
2022/12/25 02:09:46;;;;;;;;;15.00;13.40;;;;;12.41;81.71;100737.19;5036912;28;46366;-52
2022/12/25 02:12:16;;;;;;;;;15.00;11.50;;;;;12.32;82.01;100734.72;5037899;28;45468;-54
2022/12/25 02:14:42;;;;;;;;;12.20;11.00;;;;;12.04;82.35;100711.22;5037268;28;45424;-52
2022/12/25 02:17:12;;;;;;;;;11.75;10.25;;;;;12.29;82.14;100746.19;5036826;28;45378;-53
2022/12/25 02:19:59;;;;;;;;;13.60;11.00;;;;;12.27;82.24;100739.22;5036406;28;46486;-53
2022/12/25 02:22:38;;;;;;;;;11.80;9.40;;;;;12.25;82.26;100722.91;5037482;28;45325;-52
2022/12/25 02:25:19;;;;;;;;;10.20;8.40;;;;;12.21;82.69;100721.66;5037030;28;45418;-52
2022/12/25 02:28:10;;;;;;;;;9.60;8.20;;;;;11.87;82.18;100661.38;5038281;28;45428;-54
2022/12/25 02:30:42;;;;;;;;;11.40;10.20;;;;;12.29;82.31;100739.81;5036581;28;45695;-50
2022/12/25 02:36:13;;;;;;;;;16.60;15.00;;;;;12.29;82.31;100715.91;5036928;28;45416;-56
2022/12/25 02:39:56;;;;;;;;;12.20;10.20;;;;;12.23;82.29;100703.03;5036654;28;45395;-54
2022/12/25 02:41:25;;;;;;;;;9.00;9.00;;;;;12.08;82.07;100689.59;5036050;28;46061;-53
2022/12/25 03:08:53;;;;;;;;;10.40;8.80;;;;;12.40;82.52;100705.22;5036551;28;45320;-53
2022/12/25 03:11:30;;;;;;;;;9.00;7.80;;;;;12.38;82.66;100696.34;5035694;28;45423;-52
2022/12/25 03:16:52;;;;;;;;;15.20;11.40;;;;;12.41;82.59;100695.88;5037072;28;45385;-52
2022/12/25 03:27:39;;;;;;;;;17.60;15.20;;;;;12.35;83.31;100683.88;5035482;28;45312;-50
2022/12/25 03:32:57;;;;;;;;;22.60;17.60;;;;;12.34;83.44;100668.44;5037235;28;45410;-52
2022/12/25 03:35:31;;;;;;;;;18.20;13.00;;;;;12.28;83.28;100653.66;5035895;28;46510;-55
2022/12/25 03:44:44;;;;;;;;;23.00;18.00;;;;;12.38;83.62;100650.38;5036585;28;45436;-53
2022/12/25 04:37:11;;;;;;;;;21.20;17.80;;;;;12.38;83.52;100589.00;5035786;28;45337;-51
2022/12/25 04:39:37;;;;;;;;;25.50;21.25;;;;;12.39;83.50;100583.25;5036407;28;45310;-52
2022/12/25 04:42:02;;;;;;;;;22.50;22.50;;;;;12.40;83.38;100586.88;5035371;28;46039;-55
2022/12/25 04:44:28;;;;;;;;;19.50;18.75;;;;;11.92;83.34;100518.50;5035570;28;45254;-54
2022/12/25 04:46:53;;;;;;;;;23.50;18.75;;;;;12.40;83.36;100597.88;5035751;28;45242;-52
2022/12/25 04:49:19;;;;;;;;;23.50;20.75;;;;;12.41;83.60;100610.56;5034270;28;45541;-55
2022/12/25 04:51:44;;;;;;;;;23.25;21.75;;;;;12.40;83.23;100619.91;5034427;28;45385;-53
2022/12/25 04:54:10;;;;;;;;;20.50;20.00;;;;;12.39;83.13;100613.53;5021559;28;45364;-54
2022/12/25 04:56:35;;;;;;;;;21.50;17.25;;;;;12.23;83.75;100592.97;5015629;28;45484;-52
2022/12/25 04:59:01;;;;;;;;;20.50;17.75;;;;;12.36;83.42;100610.41;5015899;28;45535;-52
2022/12/25 05:01:26;;;;;;;;;22.25;19.50;;;;;12.39;83.06;100601.69;5015425;28;45454;-50
2022/12/25 05:03:52;;;;;;;;;18.75;16.25;;;;;12.14;83.19;100567.66;5015501;28;45401;-52
2022/12/25 05:06:18;;;;;;;;;17.50;14.75;;;;;12.30;83.16;100593.75;5015545;28;45297;-54
2022/12/25 05:08:43;;;;;;;;;18.00;16.00;;;;;12.27;83.45;100541.91;5015555;28;45346;-51
2022/12/25 05:11:10;;;;;;;;;16.00;14.25;;;;;12.35;83.19;100527.00;5015713;28;46022;-54
2022/12/25 05:13:36;;;;;;;;;17.60;14.60;;;;;12.37;83.19;100511.09;5015012;28;45353;-55
2022/12/25 05:16:06;;;;;;;;;18.25;18.25;;;;;12.39;83.08;100519.13;5014243;28;45369;-53
2022/12/25 05:18:31;;;;;;;;;17.40;17.00;;;;;12.22;83.28;100505.97;5013892;28;45828;-53
2022/12/25 05:20:57;;;;;;;;;19.50;14.25;;;;;12.40;83.36;100540.94;5013850;28;47363;-50
2022/12/25 05:23:22;;;;;;;;;17.50;15.50;;;;;12.40;83.32;100559.34;5009975;28;45482;-54
2022/12/25 05:25:48;;;;;;;;;19.25;16.00;;;;;12.42;83.36;100554.44;4985042;27;45532;-52
2022/12/25 05:28:13;;;;;;;;;18.50;15.00;;;;;12.37;83.33;100549.63;5055512;28;45361;-53
2022/12/25 05:30:39;;;;;;;;;21.00;16.75;;;;;12.34;83.53;100559.19;5054989;28;46306;-50
2022/12/25 05:33:04;;;;;;;;;16.50;13.50;;;;;12.37;82.95;100562.56;5054846;28;45353;-54
2022/12/25 05:35:30;;;;;;;;;19.75;17.50;;;;;12.33;83.07;100531.91;5054818;28;45367;-51
2022/12/25 05:37:55;;;;;;;;;14.00;12.00;;;;;12.40;83.27;100537.31;5053962;28;45469;-53
2022/12/25 05:40:21;;;;;;;;;18.25;16.50;;;;;12.39;83.02;100552.16;5055226;28;46561;-51
2022/12/25 05:42:46;;;;;;;;;18.50;17.50;;;;;12.25;82.81;100549.56;5054420;28;45379;-49
2022/12/25 05:45:11;;;;;;;;;17.50;17.50;;;;;12.41;82.71;100563.78;5055358;28;45375;-51
2022/12/25 05:47:37;;;;;;;;;17.50;16.75;;;;;12.37;83.08;100568.06;5055303;28;45411;-53
2022/12/25 05:50:03;;;;;;;;;15.00;14.75;;;;;12.19;83.40;100525.69;5055210;28;45380;-54
2022/12/25 05:52:32;;;;;;;;;18.80;17.20;;;;;12.18;83.62;100541.34;5054950;28;45257;-54
2022/12/25 05:54:58;;;;;;;;;17.20;15.40;;;;;12.33;83.88;100559.44;5055133;28;45436;-51
2022/12/25 05:57:24;;;;;;;;;14.60;13.60;;;;;12.31;83.34;100559.66;5055269;28;45354;-53
2022/12/25 05:59:49;;;;;;;;;17.00;15.00;;;;;12.29;83.38;100544.44;5035232;28;46221;-49
2022/12/25 06:02:15;;;;;;;;;20.00;19.00;;;;;12.28;83.59;100560.09;5034953;28;45378;-52
2022/12/25 06:04:40;;;;;;;;;15.25;13.50;;;;;12.28;83.77;100556.53;5035199;28;45299;-49
2022/12/25 06:07:06;;;;;;;;;17.00;16.00;;;;;11.75;83.55;100465.19;5035252;28;45559;-54
2022/12/25 06:09:31;;;;;;;;;15.75;14.75;;;;;12.32;83.29;100553.06;5034666;28;46509;-54
2022/12/25 06:11:57;;;;;;;;;15.25;14.75;;;;;12.11;83.34;100518.56;5034822;28;45324;-54
2022/12/25 06:14:22;;;;;;;;;16.50;14.25;;;;;12.31;83.67;100545.03;5034670;28;45379;-54
2022/12/25 06:16:51;;;;;;;;;21.00;17.50;;;;;11.96;83.72;100485.94;5035121;28;45133;-55
2022/12/25 06:19:17;;;;;;;;;17.20;15.80;;;;;12.36;83.27;100527.84;5034881;28;45381;-54
2022/12/25 06:21:43;;;;;;;;;16.60;16.20;;;;;12.36;83.32;100530.59;5034649;28;45508;-52
2022/12/25 06:24:08;;;;;;;;;22.25;17.50;;;;;12.34;83.04;100525.34;5034824;28;45493;-51
2022/12/25 06:26:34;;;;;;;;;22.00;18.25;;;;;12.28;83.23;100516.06;5034235;28;45586;-53
2022/12/25 06:28:59;;;;;;;;;18.00;17.50;;;;;12.34;83.06;100517.06;5037460;28;46046;-54
2022/12/25 06:31:25;;;;;;;;;15.50;13.50;;;;;12.34;83.25;100512.41;5054495;28;45416;-54
2022/12/25 06:33:50;;;;;;;;;18.25;13.25;;;;;12.28;82.98;100496.81;5054651;28;45391;-53
2022/12/25 06:36:20;;;;;;;;;16.75;14.25;;;;;12.30;83.23;100502.09;5054922;28;45445;-51
2022/12/25 06:38:46;;;;;;;;;16.20;14.40;;;;;12.10;82.94;100470.13;5054446;28;46036;-54
2022/12/25 06:41:16;;;;;;;;;15.00;12.25;;;;;12.31;82.98;100503.75;5054722;28;45859;-50
2022/12/25 06:43:42;;;;;;;;;18.20;16.00;;;;;12.30;82.66;100491.94;5054369;28;45229;-54
2022/12/25 06:46:09;;;;;;;;;16.75;14.50;;;;;12.29;83.18;100487.50;5056543;28;45357;-54
2022/12/25 06:48:35;;;;;;;;;13.80;13.80;;;;;12.29;83.10;100486.66;5057785;28;45793;-53
2022/12/25 06:51:01;;;;;;;;;13.40;13.40;;;;;12.05;83.01;100465.31;5058045;28;45202;-56
2022/12/25 06:53:26;;;;;;;;;18.20;13.60;;;;;12.26;83.38;100495.34;5056472;28;45448;-52
2022/12/25 06:55:52;;;;;;;;;13.25;12.00;;;;;12.25;82.81;100502.78;5058299;28;45344;-53
2022/12/25 06:58:17;;;;;;;;;11.50;9.50;;;;;12.23;82.84;100502.19;5057686;28;46017;-52
2022/12/25 07:00:43;;;;;;;;;11.00;10.50;;;;;11.74;83.22;100436.03;5057926;28;45431;-54
2022/12/25 07:03:08;;;;;;;;;16.00;14.75;;;;;12.22;83.73;100511.47;5057765;28;45444;-53
2022/12/25 07:05:34;;;;;;;;;14.25;12.00;;;;;12.23;82.99;100510.44;5040016;28;45433;-52
2022/12/25 07:07:59;;;;;;;;;12.25;12.25;;;;;12.24;82.97;100520.38;5057791;28;45415;-54
2022/12/25 07:10:25;;;;;;;;;10.75;10.75;;;;;11.66;82.95;100434.41;5057502;28;45405;-55
2022/12/25 07:12:50;;;;;;;;;12.75;12.00;;;;;11.99;83.06;100488.22;5057919;28;45377;-53
2022/12/25 07:15:16;;;;;;;;;12.00;11.00;;;;;12.24;82.86;100511.25;5057866;28;45455;-51
2022/12/25 07:17:42;;;;;;;;;11.75;10.00;;;;;12.24;82.68;100512.09;5057482;28;46587;-53
2022/12/25 07:20:08;;;;;;;;;11.40;10.40;;;;;12.02;83.16;100474.00;5057613;28;45237;-54
2022/12/25 07:22:33;;;;;;;;;13.50;11.75;;;;;12.25;82.48;100493.66;5057493;28;45263;-49
2022/12/25 07:24:59;;;;;;;;;12.25;11.00;;;;;12.23;82.44;100476.56;5058026;28;45156;-52
2022/12/25 07:27:24;;;;;;;;;13.00;11.00;;;;;12.22;82.55;100469.38;5057219;28;46599;-53
2022/12/25 07:29:50;;;;;;;;;12.00;10.25;;;;;12.11;82.37;100441.56;5057433;28;45340;-53
2022/12/25 07:32:15;;;;;;;;;11.50;10.75;;;;;12.05;82.53;100440.56;5057585;28;45219;-53
2022/12/25 07:34:41;;;;;;;;;9.00;8.25;;;;;12.12;82.12;100443.22;5057483;28;45427;-53
2022/12/25 07:37:06;;;;;;;;;13.00;9.50;;;;;12.11;82.30;100446.22;5033149;28;46551;-53
2022/12/25 07:39:34;;;;;;;;;11.00;9.75;;;;;12.03;82.77;100434.47;5030864;28;45350;-56
2022/12/25 07:41:59;;;;;;;;;12.00;11.40;;;;;12.10;82.65;100433.56;5037244;28;45416;-55
2022/12/25 07:44:25;;;;;;;;;10.50;10.50;;;;;12.12;82.34;100423.97;5036663;28;45621;-50
2022/12/25 07:46:50;;;;;;;;;12.00;10.00;;;;;12.13;82.45;100413.81;5035480;28;47226;-53
2022/12/25 07:49:16;;;;;;;;;11.50;9.25;;;;;12.14;82.60;100415.50;5035507;28;45415;-51
2022/12/25 07:51:41;;;;;;;;;11.75;11.00;;;;;12.12;82.09;100429.47;5037404;28;45338;-54
2022/12/25 07:54:07;;;;;;;;;10.50;10.50;;;;;12.11;82.14;100448.97;5046123;28;45647;-54
2022/12/25 07:56:32;;;;;;;;;12.75;12.00;;;;;12.10;82.22;100461.06;5056546;28;46279;-55
2022/12/25 07:58:58;;;;;;;;;12.50;11.25;;;;;12.11;82.30;100457.22;5056661;28;45454;-57
2022/12/25 08:01:25;;;;;;;;;11.00;11.00;;;;;12.11;81.83;100466.31;5057011;28;45353;-56
2022/12/25 08:03:55;;;;;;;;;11.60;11.40;;;;;12.09;82.03;100471.22;5056862;28;45382;-53
2022/12/25 08:06:21;;;;;;;;;11.80;10.80;;;;;12.14;81.80;100467.75;5056794;28;45429;-55
2022/12/25 08:08:47;;;;;;;;;13.80;13.00;;;;;12.04;81.77;100458.16;5055524;28;45337;-54
2022/12/25 08:11:12;;;;;;;;;11.25;10.50;;;;;12.15;81.93;100463.94;5055491;28;45231;-52
2022/12/25 08:13:38;;;;;;;;;10.50;10.50;;;;;11.95;81.57;100453.97;5056764;28;45591;-55
2022/12/25 08:16:06;;;;;;;;;11.00;10.75;;;;;12.10;81.69;100477.56;5056570;28;46008;-56
2022/12/25 08:18:32;;;;;;;;;11.40;9.80;;;;;11.90;81.78;100462.09;5055065;28;45458;-53
2022/12/25 08:21:05;;;;;;;;;10.00;9.00;;;;;12.04;81.43;100485.66;5055321;28;45402;-55
2022/12/25 08:23:32;;;;;;;;;14.80;10.80;;;;;11.90;81.74;100459.34;5056428;28;45495;-55
2022/12/25 08:26:01;;;;;;;;;13.00;10.00;;;;;12.06;81.67;100478.00;5056510;28;45393;-55
2022/12/25 08:28:28;;;;;;;;;9.80;8.00;;;;;12.06;81.62;100471.66;5056655;28;45276;-54
2022/12/25 08:30:53;;;;;;;;;10.60;9.40;;;;;12.09;81.24;100459.34;5056172;28;45644;-52
2022/12/25 08:33:19;;;;;;;;;14.25;11.75;;;;;12.11;81.15;100468.25;5056763;28;45591;-55
2022/12/25 08:35:44;;;;;;;;;10.25;10.25;;;;;12.09;81.10;100462.09;5055824;28;45326;-50
2022/12/25 08:38:10;;;;;;;;;9.75;9.75;;;;;11.42;80.89;100359.16;5037985;28;45378;-52
2022/12/25 08:40:35;;;;;;;;;11.25;9.50;;;;;12.04;80.85;100458.16;5056556;28;45290;-52
2022/12/25 08:43:01;;;;;;;;;10.00;10.00;;;;;11.66;80.79;100399.50;5056010;28;45941;-54
2022/12/25 08:45:26;;;;;;;;;12.00;9.25;;;;;12.01;80.65;100452.22;5055804;28;45777;-53
2022/12/25 08:47:55;;;;;;;;;9.25;9.00;;;;;11.92;80.60;100447.00;5055369;28;45374;-53
2022/12/25 08:50:23;;;;;;;;;14.60;9.60;;;;;11.92;80.78;100448.94;5055859;28;45456;-55
2022/12/25 08:52:49;;;;;;;;;12.40;9.60;;;;;11.93;81.28;100432.22;5055876;28;45280;-52
2022/12/25 08:55:15;;;;;;;;;10.00;10.00;;;;;11.77;80.39;100414.41;5036203;28;46455;-53
2022/12/25 08:57:40;;;;;;;;;9.25;9.25;;;;;11.93;80.52;100458.88;5035560;28;45365;-55
2022/12/25 09:00:08;;;;;;;;;10.00;6.50;;;;;11.91;80.16;100469.25;5035622;28;45510;-56
2022/12/25 09:02:34;;;;;;;;;10.60;10.40;;;;;11.79;80.72;100444.41;5035905;28;45378;-56
2022/12/25 09:04:59;;;;;;;;;13.75;11.50;;;;;11.76;80.63;100440.22;5021991;28;47663;-59
2022/12/25 09:07:25;;;;;;;;;10.00;9.25;;;;;12.01;80.83;100466.81;5055377;28;45401;-58
2022/12/25 09:09:50;;;;;;;;;6.75;5.75;;;;;11.97;80.41;100449.09;5053173;28;45509;-57
2022/12/25 09:12:16;;;;;;;;;11.75;10.75;;;;;11.63;80.00;100393.63;5055763;28;45543;-55
2022/12/25 09:14:41;;;;;;;;;8.75;8.75;;;;;11.89;80.12;100441.97;5055081;28;45642;-51
2022/12/25 09:17:07;;;;;;;;;8.75;8.75;;;;;11.93;79.97;100458.88;5055121;28;45333;-58
2022/12/25 09:19:32;;;;;;;;;8.50;8.25;;;;;11.87;79.96;100451.53;5055034;28;45438;-56
2022/12/25 09:21:58;;;;;;;;;9.50;9.50;;;;;11.76;80.11;100453.13;5055421;28;45191;-57
2022/12/25 09:24:23;;;;;;;;;9.50;8.75;;;;;11.82;80.17;100462.34;5054953;28;45948;-57
2022/12/25 09:26:49;;;;;;;;;10.50;8.75;;;;;11.75;80.11;100471.50;5055416;28;45335;-58
2022/12/25 09:29:16;;;;;;;;;7.20;6.20;;;;;11.82;80.27;100487.09;5055345;28;45258;-59
2022/12/25 09:31:42;;;;;;;;;9.60;8.80;;;;;11.77;79.74;100471.28;5055652;28;45436;-56
2022/12/25 09:34:08;;;;;;;;;9.75;7.50;;;;;11.76;79.45;100467.72;5053477;28;46239;-56
2022/12/25 09:36:33;;;;;;;;;10.25;8.00;;;;;11.75;79.95;100467.94;5036939;28;45459;-54
2022/12/25 09:38:58;;;;;;;;;9.75;8.25;;;;;11.71;79.84;100459.31;5053292;28;45513;-56
2022/12/25 09:41:39;;;;;;;;;9.50;9.00;;;;;11.72;79.52;100450.00;5055215;28;45379;-54
2022/12/25 09:44:09;;;;;;;;;11.00;9.40;;;;;11.72;79.99;100446.38;5054614;28;46907;-55
2022/12/25 09:46:42;;;;;;;;;8.00;7.20;;;;;11.75;79.63;100443.19;5054073;28;45410;-56
2022/12/25 09:49:20;;;;;;;;;9.80;8.00;;;;;11.71;79.54;100451.06;5053938;28;45481;-56
2022/12/25 09:51:49;;;;;;;;;9.40;8.80;;;;;11.52;79.42;100409.78;5038761;28;45337;-58
2022/12/25 09:54:20;;;;;;;;;10.20;9.20;;;;;11.77;80.15;100469.41;5054745;28;46594;-57
2022/12/25 09:56:46;;;;;;;;;10.80;9.80;;;;;11.79;79.46;100475.50;5054127;28;45388;-51
2022/12/25 09:59:23;;;;;;;;;16.25;14.75;;;;;11.66;79.62;100445.41;5053236;28;45407;-52
2022/12/25 10:01:59;;;;;;;;;10.60;8.80;;;;;11.79;78.94;100467.25;5053871;28;45540;-55
2022/12/25 10:04:39;;;;;;;;;13.60;9.00;;;;;11.85;79.34;100467.41;5053458;28;46148;-57
2022/12/25 10:07:17;;;;;;;;;10.20;8.20;;;;;11.89;79.13;100444.72;5036035;28;45464;-54
2022/12/25 10:09:54;;;;;;;;;10.80;9.20;;;;;11.93;78.75;100456.13;5045274;28;45372;-51
2022/12/25 10:12:31;;;;;;;;;9.40;9.40;;;;;11.97;78.86;100462.84;5050265;28;45572;-57
2022/12/25 10:15:17;;;;;;;;;12.00;10.00;;;;;11.63;78.15;100396.38;5035456;28;46056;-55
2022/12/25 10:18:12;;;;;;;;;9.60;8.40;;;;;11.93;78.35;100439.63;5052340;28;45584;-56
2022/12/25 10:20:53;;;;;;;;;11.80;9.20;;;;;12.00;78.14;100434.06;5045026;28;45422;-51
2022/12/25 10:23:37;;;;;;;;;9.80;8.60;;;;;12.01;77.89;100442.06;5056681;28;45618;-56
2022/12/25 10:26:03;;;;;;;;;8.20;8.20;;;;;12.05;78.34;100443.31;5055098;28;45724;-56
2022/12/25 10:28:33;;;;;;;;;13.00;11.40;;;;;12.06;77.71;100431.25;5055499;28;45441;-55
2022/12/25 10:31:01;;;;;;;;;10.60;9.20;;;;;12.03;78.05;100434.47;5056908;28;45420;-56
2022/12/25 10:33:26;;;;;;;;;8.20;8.20;;;;;12.04;77.73;100427.88;5040443;28;45389;-58
2022/12/25 10:35:52;;;;;;;;;11.50;9.75;;;;;12.07;77.36;100434.84;5057648;28;45932;-58
2022/12/25 10:38:17;;;;;;;;;9.50;9.50;;;;;12.09;77.16;100443.69;5057311;28;45356;-57
2022/12/25 10:40:58;;;;;;;;;10.00;10.00;;;;;12.07;77.17;100443.91;5056241;28;45368;-58
2022/12/25 10:43:37;;;;;;;;;8.60;8.60;;;;;12.01;77.52;100447.56;5056641;28;45419;-59
2022/12/25 10:46:10;;;;;;;;;12.00;9.20;;;;;12.10;77.14;100428.06;5036763;28;45438;-55
2022/12/25 10:48:38;;;;;;;;;13.00;12.40;;;;;12.15;77.24;100428.19;5035303;28;45483;-57
2022/12/25 10:51:04;;;;;;;;;9.00;8.40;;;;;12.23;77.06;100416.88;5038475;28;45433;-52
2022/12/25 10:53:37;;;;;;;;;10.50;9.50;;;;;12.11;76.81;100393.97;5055032;28;45532;-51
2022/12/25 10:56:04;;;;;;;;;7.40;7.40;;;;;12.14;76.90;100396.25;5034373;28;45403;-58
2022/12/25 10:58:29;;;;;;;;;10.40;9.40;;;;;12.40;75.99;100435.50;5035577;28;45889;-58
2022/12/25 11:01:06;;;;;;;;;9.50;8.25;;;;;12.48;76.16;100429.66;5035147;28;45438;-57
2022/12/25 11:03:52;;;;;;;;;11.40;10.20;;;;;12.57;75.68;100431.03;5036298;28;45459;-57
2022/12/25 11:06:23;;;;;;;;;9.80;6.60;;;;;12.60;75.13;100426.97;5022482;28;45516;-58
2022/12/25 11:08:51;;;;;;;;;9.00;8.00;;;;;12.59;75.01;100425.28;5034331;28;45651;-58
2022/12/25 11:11:17;;;;;;;;;7.40;6.80;;;;;12.67;75.50;100426.88;5047205;28;45495;-55
2022/12/25 11:13:48;;;;;;;;;13.00;9.50;;;;;12.69;75.08;100417.31;5053259;28;45476;-55
2022/12/25 11:16:34;;;;;;;;;11.20;9.80;;;;;12.51;74.87;100384.31;5054475;28;46921;-57
2022/12/25 11:19:00;;;;;;;;;9.40;8.60;;;;;12.74;74.82;100417.44;5054008;28;45412;-58
2022/12/25 11:21:30;;;;;;;;;11.00;8.75;;;;;12.74;74.68;100424.84;5054814;28;45400;-55
2022/12/25 11:23:58;;;;;;;;;12.40;12.20;;;;;12.72;74.77;100425.09;5054538;28;45476;-55
2022/12/25 11:26:23;;;;;;;;;11.20;11.20;;;;;12.52;74.88;100410.75;5044358;28;45847;-57
2022/12/25 11:28:50;;;;;;;;;11.75;9.25;;;;;12.72;75.53;100441.59;5034225;28;45345;-57
2022/12/25 11:31:18;;;;;;;;;11.00;8.40;;;;;12.57;74.87;100441.19;5034081;28;45427;-58
2022/12/25 11:34:04;;;;;;;;;10.20;10.00;;;;;12.68;74.91;100456.94;5033420;28;45562;-58
2022/12/25 11:36:36;;;;;;;;;9.40;8.40;;;;;12.77;74.86;100473.13;5033981;28;45593;-59
2022/12/25 11:39:21;;;;;;;;;6.80;6.80;;;;;12.75;74.68;100465.09;5050729;28;45393;-57
2022/12/25 11:41:47;;;;;;;;;9.80;7.80;;;;;12.78;74.83;100472.91;5055479;28;45532;-57
2022/12/25 11:44:31;;;;;;;;;9.75;8.25;;;;;12.81;74.93;100477.09;5037393;28;45447;-58
2022/12/25 11:46:57;;;;;;;;;8.00;7.60;;;;;12.73;74.80;100468.09;5055061;28;45751;-58
2022/12/25 11:49:22;;;;;;;;;7.25;7.25;;;;;12.83;74.51;100472.19;5033278;28;45370;-58
2022/12/25 11:51:50;;;;;;;;;10.00;9.00;;;;;12.82;74.79;100465.81;5033710;28;45546;-58
2022/12/25 11:54:40;;;;;;;;;11.20;8.00;;;;;12.80;74.61;100470.75;5019749;28;45651;-59
2022/12/25 11:57:07;;;;;;;;;14.60;10.40;;;;;12.77;74.31;100429.91;5053407;28;45619;-59
2022/12/25 11:59:36;;;;;;;;;9.00;9.00;;;;;12.74;74.26;100427.63;5036983;28;45389;-58
2022/12/25 12:02:23;;;;;;;;;11.80;10.20;;;;;12.83;74.79;100431.72;5044828;28;45431;-59
2022/12/25 12:04:51;;;;;;;;;11.00;8.40;;;;;12.90;74.41;100441.81;5023522;28;45494;-59
2022/12/25 12:07:29;;;;;;;;;10.60;8.60;;;;;12.90;73.93;100436.31;4999568;28;46034;-59
2022/12/25 12:10:10;;;;;;;;;11.00;9.00;;;;;12.92;73.77;100434.97;5053464;28;45449;-61
2022/12/25 12:12:39;;;;;;;;;7.60;6.80;;;;;12.90;74.07;100415.09;5054781;28;45444;-60
2022/12/25 12:15:28;;;;;;;;;9.00;8.00;;;;;12.71;73.88;100375.78;5053951;28;45939;-61
2022/12/25 12:17:53;;;;;;;;;10.00;9.00;;;;;12.94;73.96;100409.94;5056174;28;46067;-57
2022/12/25 12:20:29;;;;;;;;;7.25;7.25;;;;;12.94;74.28;100409.94;5047524;28;45520;-60
2022/12/25 12:22:54;;;;;;;;;10.80;9.80;;;;;12.96;73.92;100396.81;5054768;28;45369;-61
2022/12/25 12:25:20;;;;;;;;;8.50;8.50;;;;;12.95;73.74;100401.47;5052286;28;45612;-60
2022/12/25 12:27:51;;;;;;;;;11.25;9.00;;;;;12.95;73.53;100389.59;5053589;28;46658;-61
2022/12/25 12:30:27;;;;;;;;;8.80;8.80;;;;;12.98;73.85;100380.88;5054062;28;45434;-60
2022/12/25 12:32:54;;;;;;;;;7.00;5.80;;;;;13.00;73.31;100384.22;5054613;28;45361;-56
2022/12/25 12:35:25;;;;;;;;;9.00;9.00;;;;;12.93;72.89;100376.06;5054741;28;45341;-55
2022/12/25 12:37:53;;;;;;;;;7.40;7.20;;;;;12.88;73.27;100384.19;5055591;28;46430;-60
2022/12/25 12:40:39;;;;;;;;;9.60;8.40;;;;;12.98;73.65;100397.41;5054673;28;45430;-60
2022/12/25 12:43:06;;;;;;;;;9.20;9.20;;;;;13.03;73.66;100394.78;5054411;28;45575;-61
2022/12/25 12:45:33;;;;;;;;;12.40;8.80;;;;;13.11;73.23;100412.84;5054662;28;45274;-62
2022/12/25 12:47:58;;;;;;;;;10.60;9.00;;;;;13.13;73.29;100413.47;5055770;28;46242;-52
2022/12/25 12:50:39;;;;;;;;;10.75;10.25;;;;;13.15;73.31;100381.81;5037589;28;45425;-57
2022/12/25 12:53:27;;;;;;;;;7.80;6.80;;;;;13.03;72.94;100369.97;5049275;28;45457;-54
2022/12/25 12:55:54;;;;;;;;;6.80;5.00;;;;;13.23;72.44;100393.59;5047914;28;45805;-57
2022/12/25 12:58:33;;;;;;;;;11.40;8.60;;;;;13.25;72.50;100374.91;5052866;28;46201;-57
2022/12/25 13:01:06;;;;;;;;;10.00;7.40;;;;;13.38;72.45;100374.66;5053664;28;45340;-55